Time;durP1;ratioP1;P1;durP2;ratioP2;P2;SDS_P1;SDS_P2;PMS_P1;PMS_P2;Temp;Humidity;BMP_temperature;BMP_pressure;BME280_temperature;BME280_humidity;BME280_pressure;Samples;Min_cycle;Max_cycle;Signal;HPM_P1;HPM_P2
2023/07/03 00:00:37;;;;;;;19.83;15.93;;;15.60;99.90;;;;;;5058687;28;20200;-77
2023/07/03 00:03:04;;;;;;;20.50;16.10;;;15.60;99.90;;;;;;5069449;28;20242;-76
2023/07/03 00:05:31;;;;;;;20.87;15.90;;;15.60;99.90;;;;;;5070600;28;20233;-78
2023/07/03 00:07:58;;;;;;;17.27;15.23;;;15.60;99.90;;;;;;5068250;28;20207;-75
2023/07/03 00:10:25;;;;;;;18.77;15.57;;;15.60;99.90;;;;;;5058473;28;20203;-75
2023/07/03 00:12:51;;;;;;;18.47;14.80;;;15.60;99.90;;;;;;5058345;28;20259;-76
2023/07/03 00:15:18;;;;;;;20.03;16.20;;;15.50;99.90;;;;;;5059135;28;20217;-76
2023/07/03 00:17:47;;;;;;;21.33;16.10;;;15.50;99.90;;;;;;5057642;28;20264;-76
2023/07/03 00:20:14;;;;;;;18.67;15.33;;;15.50;99.90;;;;;;5047985;28;20275;-77
2023/07/03 00:22:41;;;;;;;19.53;16.53;;;15.50;99.90;;;;;;5051147;28;20217;-76
2023/07/03 00:25:09;;;;;;;18.67;15.40;;;15.40;99.90;;;;;;5049845;28;20204;-77
2023/07/03 00:27:36;;;;;;;19.23;15.13;;;15.40;99.90;;;;;;5047758;28;20302;-76
2023/07/03 00:30:05;;;;;;;18.30;14.83;;;15.40;99.90;;;;;;5064168;28;20212;-76
2023/07/03 00:32:32;;;;;;;18.33;16.17;;;15.40;99.90;;;;;;5069700;28;20223;-77
2023/07/03 00:35:01;;;;;;;24.40;16.47;;;15.40;99.90;;;;;;5066364;28;20220;-75
2023/07/03 00:37:28;;;;;;;21.40;15.47;;;15.40;99.90;;;;;;5061240;28;20231;-77
2023/07/03 00:39:54;;;;;;;20.80;16.43;;;15.30;99.90;;;;;;5068989;28;20296;-76
2023/07/03 00:42:24;;;;;;;23.60;16.60;;;15.40;99.90;;;;;;5068464;28;20230;-76
2023/07/03 00:44:51;;;;;;;21.40;16.17;;;15.30;99.90;;;;;;5069667;28;20199;-77
2023/07/03 00:47:17;;;;;;;22.67;17.43;;;15.30;99.90;;;;;;5067274;28;20203;-77
2023/07/03 00:49:44;;;;;;;20.93;16.37;;;15.30;99.90;;;;;;5068417;28;20231;-75
2023/07/03 00:52:14;;;;;;;21.20;16.60;;;15.20;99.90;;;;;;5064680;28;20261;-76
2023/07/03 00:54:41;;;;;;;18.63;15.53;;;15.20;99.90;;;;;;5064256;28;20220;-76
2023/07/03 00:57:12;;;;;;;20.13;15.10;;;15.20;99.90;;;;;;5060797;28;20563;-77
2023/07/03 00:59:38;;;;;;;19.37;15.53;;;15.20;99.90;;;;;;5058538;28;20711;-76
2023/07/03 01:02:11;;;;;;;20.13;14.77;;;15.20;99.90;;;;;;5065803;28;20222;-77
2023/07/03 01:04:44;;;;;;;19.10;15.23;;;15.20;99.90;;;;;;5071506;28;20203;-78
2023/07/03 01:07:16;;;;;;;22.10;15.70;;;15.10;99.90;;;;;;5071017;28;20210;-75
2023/07/03 01:09:46;;;;;;;19.87;15.60;;;15.20;99.90;;;;;;5069784;28;20206;-78
2023/07/03 01:12:13;;;;;;;20.03;16.63;;;15.10;99.90;;;;;;5060856;28;20279;-77
2023/07/03 01:14:42;;;;;;;23.90;16.07;;;15.10;99.90;;;;;;5059620;28;20219;-76
2023/07/03 01:17:11;;;;;;;18.73;14.87;;;15.10;99.90;;;;;;5067925;28;20198;-78
2023/07/03 01:19:40;;;;;;;19.53;14.83;;;15.10;99.90;;;;;;5060207;28;20271;-77
2023/07/03 01:22:14;;;;;;;18.87;14.47;;;15.10;99.90;;;;;;5065500;28;20223;-77
2023/07/03 01:24:47;;;;;;;17.83;13.70;;;15.10;99.90;;;;;;5065505;28;20201;-77
2023/07/03 01:27:17;;;;;;;19.03;14.97;;;15.10;99.90;;;;;;5060895;28;20206;-75
2023/07/03 01:29:46;;;;;;;20.30;15.17;;;15.10;99.90;;;;;;5057851;28;20220;-78
2023/07/03 01:32:14;;;;;;;22.20;15.67;;;15.10;99.90;;;;;;5062824;28;20284;-77
2023/07/03 01:34:45;;;;;;;20.40;15.03;;;15.10;99.90;;;;;;5073086;28;20223;-77
2023/07/03 01:37:13;;;;;;;21.07;16.67;;;15.10;99.90;;;;;;5066849;28;20199;-77
2023/07/03 01:39:43;;;;;;;18.30;14.80;;;15.00;99.90;;;;;;5072759;28;20626;-76
2023/07/03 01:42:11;;;;;;;18.70;15.17;;;15.00;99.90;;;;;;5059438;28;20229;-76
2023/07/03 01:44:38;;;;;;;21.67;14.77;;;15.00;99.90;;;;;;5064244;28;20217;-76
2023/07/03 01:47:08;;;;;;;19.07;11.57;;;15.00;99.90;;;;;;5062008;28;20228;-78
2023/07/03 01:49:34;;;;;;;19.90;12.00;;;15.00;99.90;;;;;;5047525;28;20195;-76
2023/07/03 01:52:09;;;;;;;17.77;11.20;;;15.00;99.90;;;;;;5062177;28;20246;-75
2023/07/03 01:54:42;;;;;;;22.73;12.20;;;15.00;99.90;;;;;;5058825;28;20227;-78
2023/07/03 01:57:15;;;;;;;17.57;12.07;;;15.00;99.90;;;;;;5068969;28;20199;-76
2023/07/03 01:59:42;;;;;;;18.13;12.10;;;15.00;99.90;;;;;;5075506;28;20199;-78
2023/07/03 02:02:16;;;;;;;17.97;11.70;;;15.00;99.90;;;;;;5074655;28;20608;-75
2023/07/03 02:04:50;;;;;;;20.00;12.20;;;15.00;99.90;;;;;;5069401;28;20213;-77
2023/07/03 02:07:18;;;;;;;19.63;12.73;;;15.00;99.90;;;;;;5067588;28;20211;-77
2023/07/03 02:09:45;;;;;;;16.50;11.23;;;14.90;99.90;;;;;;5073735;28;20207;-77
2023/07/03 02:12:14;;;;;;;21.47;12.93;;;14.90;99.90;;;;;;5073421;28;20219;-77
2023/07/03 02:14:43;;;;;;;19.27;12.27;;;14.90;99.90;;;;;;5077565;28;20201;-77
2023/07/03 02:17:22;;;;;;;17.03;12.53;;;15.00;99.90;;;;;;5072235;28;20618;-77
2023/07/03 02:19:49;;;;;;;22.00;12.07;;;15.00;99.90;;;;;;5075198;28;20201;-77
2023/07/03 02:22:15;;;;;;;16.03;11.03;;;15.00;99.90;;;;;;5074310;28;20228;-77
2023/07/03 02:24:42;;;;;;;18.93;11.70;;;15.00;99.90;;;;;;5071703;28;20278;-77
2023/07/03 02:27:09;;;;;;;15.87;10.60;;;14.90;99.90;;;;;;5074146;28;20197;-76
2023/07/03 02:29:37;;;;;;;18.83;11.50;;;14.90;99.90;;;;;;5072856;28;20215;-78
2023/07/03 02:32:08;;;;;;;17.63;11.70;;;14.80;99.90;;;;;;5068830;28;20222;-77
2023/07/03 02:34:35;;;;;;;20.57;12.33;;;14.80;99.90;;;;;;5056208;28;20613;-77
2023/07/03 02:37:01;;;;;;;15.13;10.67;;;14.80;99.90;;;;;;5073372;28;20196;-77
2023/07/03 02:39:29;;;;;;;17.20;11.87;;;14.90;99.90;;;;;;5079659;28;20205;-77
2023/07/03 02:41:57;;;;;;;15.70;10.33;;;14.90;99.90;;;;;;5069562;28;20248;-76
2023/07/03 02:44:24;;;;;;;14.03;10.27;;;15.00;99.90;;;;;;5073346;28;20197;-77
2023/07/03 02:46:52;;;;;;;18.27;12.20;;;15.00;99.90;;;;;;5062851;28;20565;-76
2023/07/03 02:49:19;;;;;;;16.90;11.30;;;15.00;99.90;;;;;;5062298;28;20196;-78
2023/07/03 02:51:47;;;;;;;13.27;9.77;;;15.10;99.90;;;;;;5055885;28;20223;-78
2023/07/03 02:54:14;;;;;;;15.27;11.47;;;15.10;99.90;;;;;;5047486;28;20289;-80
2023/07/03 02:56:42;;;;;;;13.63;9.77;;;15.10;99.90;;;;;;5041862;28;20604;-78
2023/07/03 02:59:08;;;;;;;13.10;9.40;;;15.00;99.90;;;;;;5045789;28;20283;-80
2023/07/03 03:01:37;;;;;;;13.30;9.40;;;15.10;99.90;;;;;;5047828;28;20663;-79
2023/07/03 03:04:05;;;;;;;13.03;9.70;;;15.10;99.90;;;;;;5035587;28;20199;-77
2023/07/03 03:06:33;;;;;;;12.20;9.77;;;15.10;99.90;;;;;;5051341;28;20220;-77
2023/07/03 03:09:00;;;;;;;14.57;10.20;;;15.10;99.90;;;;;;5048570;28;20557;-78
2023/07/03 03:11:29;;;;;;;11.27;9.23;;;15.10;99.90;;;;;;5052731;28;20225;-78
2023/07/03 03:13:57;;;;;;;12.17;9.30;;;15.20;99.90;;;;;;5054180;28;20198;-78
2023/07/03 03:16:24;;;;;;;13.93;9.47;;;15.20;99.90;;;;;;5060455;28;20222;-79
2023/07/03 03:18:51;;;;;;;11.70;9.03;;;15.20;99.90;;;;;;5056094;28;20312;-79
2023/07/03 03:21:19;;;;;;;13.30;10.00;;;15.30;99.90;;;;;;5058940;28;20197;-79
2023/07/03 03:23:47;;;;;;;13.23;9.97;;;15.30;99.90;;;;;;5061949;28;20208;-79
2023/07/03 03:26:14;;;;;;;18.33;10.90;;;15.30;99.90;;;;;;5073896;28;20219;-78
2023/07/03 03:28:41;;;;;;;13.87;9.73;;;15.40;99.90;;;;;;5066951;28;20198;-79
2023/07/03 03:31:09;;;;;;;17.10;11.00;;;15.40;99.90;;;;;;5058766;28;20632;-78
2023/07/03 03:33:40;;;;;;;19.43;11.70;;;15.40;99.90;;;;;;5070672;28;20219;-78
2023/07/03 03:36:08;;;;;;;19.30;10.97;;;15.50;99.90;;;;;;5063767;28;20221;-78
2023/07/03 03:38:36;;;;;;;17.43;11.23;;;15.50;99.90;;;;;;5065865;28;20201;-78
2023/07/03 03:41:04;;;;;;;16.30;10.60;;;15.50;99.90;;;;;;5066054;28;20715;-79
2023/07/03 03:43:35;;;;;;;16.73;11.07;;;15.60;99.90;;;;;;5060779;28;20223;-79
2023/07/03 03:46:03;;;;;;;18.67;11.73;;;15.60;99.90;;;;;;5063295;28;20212;-79
2023/07/03 03:48:32;;;;;;;15.07;10.67;;;15.60;99.90;;;;;;5073701;28;20231;-77
2023/07/03 03:51:00;;;;;;;20.70;12.10;;;15.60;99.90;;;;;;5071723;28;20200;-77
2023/07/03 03:53:29;;;;;;;16.73;11.30;;;15.70;99.90;;;;;;5065579;28;20229;-78
2023/07/03 03:55:57;;;;;;;16.70;11.10;;;15.60;99.90;;;;;;5053967;28;20280;-77
2023/07/03 03:58:24;;;;;;;15.47;10.97;;;15.70;99.90;;;;;;5059968;28;20236;-77
2023/07/03 04:00:51;;;;;;;15.47;11.13;;;15.70;99.90;;;;;;5065666;28;20199;-77
2023/07/03 04:03:18;;;;;;;15.30;10.87;;;15.70;99.90;;;;;;5058620;28;20792;-77
2023/07/03 04:05:45;;;;;;;14.77;11.13;;;15.70;99.90;;;;;;5060024;28;20224;-77
2023/07/03 04:08:12;;;;;;;16.87;10.40;;;15.80;99.90;;;;;;5059583;28;20252;-78
2023/07/03 04:10:39;;;;;;;15.10;11.27;;;15.80;99.90;;;;;;5057382;28;20198;-77
2023/07/03 04:13:07;;;;;;;16.17;10.73;;;15.80;99.90;;;;;;5055717;28;20292;-77
2023/07/03 04:15:37;;;;;;;16.30;11.33;;;15.80;99.90;;;;;;5046088;28;20224;-77
2023/07/03 04:18:04;;;;;;;15.87;10.83;;;15.90;99.90;;;;;;5060186;28;20255;-77
2023/07/03 04:20:33;;;;;;;15.03;10.43;;;15.90;99.90;;;;;;5054264;28;20201;-77
2023/07/03 04:22:59;;;;;;;13.87;9.60;;;15.90;99.90;;;;;;5049437;28;20309;-77
2023/07/03 04:25:26;;;;;;;13.33;9.93;;;16.00;99.90;;;;;;5049286;28;20204;-77
2023/07/03 04:27:53;;;;;;;13.47;9.30;;;16.00;99.90;;;;;;5044085;28;20243;-77
2023/07/03 04:30:21;;;;;;;14.90;10.30;;;16.10;99.90;;;;;;5064992;28;20205;-77
2023/07/03 04:32:53;;;;;;;16.17;9.93;;;16.20;99.90;;;;;;5072363;28;20241;-77
2023/07/03 04:35:20;;;;;;;12.60;9.27;;;16.20;99.90;;;;;;5070766;28;20261;-77
2023/07/03 04:37:47;;;;;;;14.53;8.87;;;16.30;99.90;;;;;;5059486;28;20259;-78
2023/07/03 04:40:14;;;;;;;12.80;9.53;;;16.40;99.90;;;;;;5070341;28;20190;-77
2023/07/03 04:42:41;;;;;;;15.80;9.67;;;16.50;99.90;;;;;;5063959;28;20217;-77
2023/07/03 04:45:08;;;;;;;14.97;9.70;;;16.50;99.90;;;;;;5066458;28;20186;-77
2023/07/03 04:47:37;;;;;;;12.53;8.87;;;16.50;99.90;;;;;;5065928;28;20191;-78
2023/07/03 04:50:05;;;;;;;16.43;9.97;;;16.60;99.90;;;;;;5066554;28;20202;-77
2023/07/03 04:52:33;;;;;;;15.00;8.77;;;16.70;99.90;;;;;;5070754;28;20237;-78
2023/07/03 04:55:00;;;;;;;14.27;9.53;;;16.70;99.90;;;;;;5063045;28;20198;-77
2023/07/03 04:57:27;;;;;;;13.60;8.70;;;16.80;99.90;;;;;;5073013;28;20606;-78
2023/07/03 04:59:54;;;;;;;12.77;8.23;;;16.90;99.90;;;;;;5066788;28;20718;-77
2023/07/03 05:02:22;;;;;;;11.37;8.27;;;16.90;99.90;;;;;;5060065;28;20645;-77
2023/07/03 05:04:51;;;;;;;12.10;8.97;;;16.90;99.90;;;;;;5056123;28;20565;-77
2023/07/03 05:07:19;;;;;;;11.77;8.73;;;17.00;99.90;;;;;;5072898;28;20665;-77
2023/07/03 05:09:46;;;;;;;12.83;8.73;;;17.10;99.90;;;;;;5064888;28;20233;-77
2023/07/03 05:12:13;;;;;;;12.53;8.70;;;17.10;99.90;;;;;;5070666;28;20218;-76
2023/07/03 05:14:40;;;;;;;13.50;9.27;;;17.20;99.90;;;;;;5065715;28;20221;-76
2023/07/03 05:17:07;;;;;;;15.37;9.43;;;17.20;99.90;;;;;;5064944;28;20249;-78
2023/07/03 05:19:33;;;;;;;13.57;10.63;;;17.30;99.90;;;;;;5053689;28;20643;-77
2023/07/03 05:22:01;;;;;;;14.00;12.60;;;17.30;99.90;;;;;;5067253;28;20211;-75
2023/07/03 05:24:28;;;;;;;11.73;9.23;;;17.40;99.90;;;;;;5059288;28;20265;-77
2023/07/03 05:26:55;;;;;;;13.90;9.77;;;17.40;99.90;;;;;;5066570;28;20188;-77
2023/07/03 05:29:22;;;;;;;13.20;9.10;;;17.50;99.90;;;;;;5071977;28;20194;-78
2023/07/03 05:31:48;;;;;;;14.47;10.10;;;17.60;99.90;;;;;;5067490;28;20767;-77
2023/07/03 05:34:15;;;;;;;11.13;9.40;;;17.70;99.90;;;;;;5066285;28;20196;-77
2023/07/03 05:36:42;;;;;;;13.23;9.03;;;17.80;99.90;;;;;;5069955;28;20222;-77
2023/07/03 05:39:10;;;;;;;14.23;9.00;;;17.90;99.90;;;;;;5062762;28;20197;-78
2023/07/03 05:41:37;;;;;;;16.43;9.17;;;17.90;99.90;;;;;;5049859;28;20256;-76
2023/07/03 05:44:04;;;;;;;13.93;8.90;;;18.00;99.90;;;;;;5071586;28;20196;-76
2023/07/03 05:46:31;;;;;;;13.67;8.87;;;18.10;99.90;;;;;;5072662;28;20232;-77
2023/07/03 05:48:58;;;;;;;13.13;10.93;;;18.20;99.90;;;;;;5066383;28;20201;-78
2023/07/03 05:51:24;;;;;;;13.33;10.63;;;18.30;99.90;;;;;;5065448;28;20630;-78
2023/07/03 05:53:51;;;;;;;10.40;7.70;;;18.40;99.90;;;;;;5065668;28;20549;-77
2023/07/03 05:56:19;;;;;;;12.33;9.70;;;18.50;99.90;;;;;;5057226;28;20223;-78
2023/07/03 05:58:46;;;;;;;12.03;8.17;;;18.60;99.90;;;;;;5055112;28;20214;-78
2023/07/03 06:01:13;;;;;;;13.10;10.23;;;18.80;99.90;;;;;;5072463;28;20628;-78
2023/07/03 06:03:42;;;;;;;15.30;11.33;;;18.90;99.90;;;;;;5074517;28;20233;-76
2023/07/03 06:06:09;;;;;;;14.00;12.07;;;19.00;99.90;;;;;;5067179;28;20198;-76
2023/07/03 06:08:36;;;;;;;13.00;9.07;;;19.20;99.90;;;;;;5064893;28;20607;-78
2023/07/03 06:11:03;;;;;;;10.77;8.17;;;19.30;99.90;;;;;;5063567;28;20610;-77
2023/07/03 06:13:31;;;;;;;10.77;7.50;;;19.40;99.90;;;;;;5068015;28;20222;-76
2023/07/03 06:15:58;;;;;;;11.10;7.70;;;19.60;99.90;;;;;;5071170;28;20222;-76
2023/07/03 06:18:25;;;;;;;11.27;7.90;;;19.60;99.90;;;;;;5064760;28;20199;-80
2023/07/03 06:20:52;;;;;;;11.70;10.13;;;19.70;99.90;;;;;;5074055;28;20649;-78
2023/07/03 06:23:19;;;;;;;10.90;9.17;;;19.90;99.90;;;;;;5069609;28;20215;-80
2023/07/03 06:25:46;;;;;;;12.00;7.67;;;20.00;99.90;;;;;;5071792;28;20192;-78
2023/07/03 06:28:13;;;;;;;13.23;8.03;;;20.10;99.90;;;;;;5071049;28;20859;-78
2023/07/03 06:30:47;;;;;;;12.10;7.60;;;20.30;99.90;;;;;;5070360;28;20195;-76
2023/07/03 06:33:13;;;;;;;10.93;8.27;;;20.40;99.90;;;;;;5068983;28;20253;-78
2023/07/03 06:35:40;;;;;;;12.77;8.40;;;20.50;99.90;;;;;;5069357;28;20212;-77
2023/07/03 06:38:07;;;;;;;11.90;8.03;;;20.60;99.90;;;;;;5066755;28;20269;-77
2023/07/03 06:40:34;;;;;;;12.30;9.37;;;20.60;99.90;;;;;;5069827;28;20665;-77
2023/07/03 06:43:01;;;;;;;10.13;7.80;;;20.70;99.90;;;;;;5062106;28;20214;-77
2023/07/03 06:45:29;;;;;;;11.17;9.07;;;20.90;99.90;;;;;;5069521;28;20195;-77
2023/07/03 06:47:58;;;;;;;9.67;7.37;;;20.90;99.90;;;;;;5069043;28;20221;-76
2023/07/03 06:50:24;;;;;;;10.73;7.37;;;21.00;99.90;;;;;;5060763;28;20256;-77
2023/07/03 06:52:51;;;;;;;11.00;7.67;;;21.10;99.90;;;;;;5067659;28;20215;-77
2023/07/03 06:55:18;;;;;;;14.23;7.83;;;21.10;99.90;;;;;;5065687;28;20224;-77
2023/07/03 06:57:45;;;;;;;13.47;10.30;;;21.00;99.90;;;;;;5064098;28;20272;-77
2023/07/03 07:00:13;;;;;;;11.47;10.27;;;21.10;99.90;;;;;;5067313;28;20206;-77
2023/07/03 07:02:39;;;;;;;14.80;9.70;;;21.20;99.90;;;;;;5072213;28;20242;-77
2023/07/03 07:05:08;;;;;;;11.73;10.50;;;21.30;99.90;;;;;;5064593;28;20240;-77
2023/07/03 07:07:35;;;;;;;12.27;10.00;;;21.30;99.90;;;;;;5066922;28;20256;-77
2023/07/03 07:10:02;;;;;;;14.27;9.90;;;21.30;99.90;;;;;;5068928;28;20252;-78
2023/07/03 07:12:29;;;;;;;12.53;8.00;;;21.40;99.90;;;;;;5070445;28;20735;-77
2023/07/03 07:14:56;;;;;;;11.87;10.07;;;21.30;99.90;;;;;;5063949;28;20203;-78
2023/07/03 07:17:23;;;;;;;12.20;10.00;;;21.40;99.90;;;;;;5061956;28;20277;-76
2023/07/03 07:19:50;;;;;;;10.60;7.67;;;21.50;99.90;;;;;;5066981;28;20669;-77
2023/07/03 07:22:18;;;;;;;11.00;7.50;;;21.60;99.90;;;;;;5051546;28;20215;-78
2023/07/03 07:24:45;;;;;;;14.07;7.43;;;21.70;99.90;;;;;;5053417;28;20557;-77
2023/07/03 07:27:12;;;;;;;12.87;9.47;;;21.80;99.90;;;;;;5064846;28;20187;-76
2023/07/03 07:29:39;;;;;;;10.43;6.80;;;21.90;99.90;;;;;;5073182;28;20236;-78
2023/07/03 07:32:08;;;;;;;12.57;9.73;;;21.90;99.90;;;;;;5070463;28;20221;-78
2023/07/03 07:34:35;;;;;;;13.37;10.60;;;22.00;99.90;;;;;;5069883;28;20267;-80
2023/07/03 07:37:02;;;;;;;13.00;9.40;;;22.20;99.90;;;;;;5070866;28;20585;-78
2023/07/03 07:39:30;;;;;;;11.67;9.40;;;22.40;99.90;;;;;;5068401;28;20285;-79
2023/07/03 07:41:57;;;;;;;12.33;8.40;;;22.60;99.90;;;;;;5060626;28;20211;-81
2023/07/03 07:44:26;;;;;;;15.87;7.77;;;22.60;99.90;;;;;;5065922;28;20611;-80
2023/07/03 07:46:53;;;;;;;15.77;7.97;;;22.70;99.90;;;;;;5067229;28;20193;-82
2023/07/03 07:49:20;;;;;;;15.23;9.67;;;22.70;99.90;;;;;;5069331;28;20203;-80
2023/07/03 07:51:46;;;;;;;32.50;9.70;;;22.70;99.90;;;;;;5063785;28;20228;-82
2023/07/03 07:54:13;;;;;;;20.47;9.90;;;23.00;99.90;;;;;;5067648;28;20196;-82
2023/07/03 07:56:41;;;;;;;23.37;8.50;;;23.30;99.90;;;;;;5067707;28;20649;-80
2023/07/03 07:59:08;;;;;;;15.67;7.77;;;23.50;99.90;;;;;;5060075;28;20202;-82
2023/07/03 08:01:36;;;;;;;18.53;8.37;;;23.60;99.90;;;;;;5069959;28;20230;-81
2023/07/03 08:04:03;;;;;;;19.00;8.40;;;23.50;99.90;;;;;;5060514;28;20617;-82
2023/07/03 08:06:30;;;;;;;14.67;7.37;;;23.30;99.90;;;;;;5053018;28;20573;-83
2023/07/03 08:08:57;;;;;;;13.13;7.90;;;23.00;99.90;;;;;;5053336;28;20202;-82
2023/07/03 08:11:28;;;;;;;14.10;8.03;;;22.70;99.90;;;;;;5062640;28;20202;-81
2023/07/03 08:13:56;;;;;;;13.27;6.57;;;22.60;99.90;;;;;;5048689;28;20199;-75
2023/07/03 08:16:23;;;;;;;17.37;7.70;;;22.90;99.90;;;;;;5064501;28;20207;-75
2023/07/03 08:18:50;;;;;;;12.67;7.43;;;22.80;99.90;;;;;;5051162;28;20713;-76
2023/07/03 08:21:17;;;;;;;12.90;7.43;;;22.70;99.90;;;;;;5047917;28;20202;-76
2023/07/03 08:23:44;;;;;;;12.13;7.10;;;22.60;99.90;;;;;;5048048;28;20219;-76
2023/07/03 08:26:18;;;;;;;14.13;8.40;;;22.50;99.90;;;;;;5051532;28;20186;-77
2023/07/03 08:28:45;;;;;;;12.53;10.30;;;22.70;99.90;;;;;;5048423;28;20206;-77
2023/07/03 08:31:13;;;;;;;13.53;7.60;;;23.10;99.90;;;;;;5055121;28;20230;-76
2023/07/03 08:33:39;;;;;;;12.43;10.27;;;23.20;99.90;;;;;;5034092;28;20653;-77
2023/07/03 08:36:06;;;;;;;11.97;7.47;;;23.20;99.90;;;;;;5056675;28;20716;-77
2023/07/03 08:38:33;;;;;;;14.40;9.20;;;23.00;99.90;;;;;;5062574;28;20673;-76
2023/07/03 08:41:01;;;;;;;13.40;8.73;;;22.90;99.90;;;;;;5066353;28;20195;-76
2023/07/03 08:43:33;;;;;;;13.87;7.90;;;22.60;99.90;;;;;;5063875;28;20218;-76
2023/07/03 08:46:02;;;;;;;12.70;9.30;;;22.50;99.90;;;;;;5055572;28;20217;-75
2023/07/03 08:48:34;;;;;;;10.70;9.60;;;22.60;99.90;;;;;;5062311;28;20206;-77
2023/07/03 08:51:04;;;;;;;13.93;10.27;;;22.60;99.90;;;;;;5059941;28;20198;-76
2023/07/03 08:53:36;;;;;;;13.40;7.17;;;22.80;99.90;;;;;;5058224;28;20226;-77
2023/07/03 08:56:08;;;;;;;11.10;8.80;;;23.80;99.90;;;;;;5049491;28;20199;-76
2023/07/03 08:58:35;;;;;;;16.53;7.23;;;24.20;99.90;;;;;;5041161;28;20560;-77
2023/07/03 09:01:08;;;;;;;9.90;6.20;;;24.20;99.90;;;;;;5046981;28;20195;-76
2023/07/03 09:03:47;;;;;;;10.67;6.80;;;24.60;99.90;;;;;;5045819;28;20705;-77
2023/07/03 09:06:19;;;;;;;13.53;7.03;;;24.70;99.90;;;;;;5060043;28;20201;-77
2023/07/03 09:08:55;;;;;;;16.30;9.93;;;24.70;99.90;;;;;;5054267;28;20590;-78
2023/07/03 09:11:25;;;;;;;12.17;6.53;;;25.30;99.90;;;;;;5067266;28;20202;-78
2023/07/03 09:13:55;;;;;;;12.97;7.03;;;25.70;99.90;;;;;;5046377;28;20254;-78
2023/07/03 09:16:24;;;;;;;14.43;7.70;;;25.50;99.90;;;;;;5061692;28;20201;-78
2023/07/03 09:19:00;;;;;;;9.90;6.50;;;25.30;99.90;;;;;;5062603;28;20287;-78
2023/07/03 09:21:29;;;;;;;20.00;7.10;;;25.30;99.90;;;;;;5051581;28;20657;-78
2023/07/03 09:24:02;;;;;;;18.73;8.00;;;25.70;99.90;;;;;;5072150;28;20244;-77
2023/07/03 09:26:37;;;;;;;20.93;7.80;;;25.90;99.90;;;;;;5065441;28;20202;-78
2023/07/03 09:29:05;;;;;;;18.03;7.20;;;25.90;99.90;;;;;;5065987;28;20198;-77
2023/07/03 09:31:32;;;;;;;56.07;12.90;;;25.60;99.90;;;;;;5056869;28;20203;-77
2023/07/03 09:34:01;;;;;;;17.20;9.10;;;25.10;99.90;;;;;;5057469;28;20221;-78
2023/07/03 09:36:34;;;;;;;55.87;11.30;;;25.00;99.90;;;;;;5063691;28;20625;-78
2023/07/03 09:39:09;;;;;;;28.87;8.80;;;24.90;99.90;;;;;;5062462;28;20198;-78
2023/07/03 09:41:36;;;;;;;21.70;9.30;;;24.60;99.90;;;;;;5058695;28;20238;-78
2023/07/03 09:44:08;;;;;;;25.80;11.10;;;24.40;99.90;;;;;;5065842;28;20196;-78
2023/07/03 09:46:35;;;;;;;15.93;9.47;;;24.80;99.90;;;;;;5057359;28;20291;-76
2023/07/03 09:49:05;;;;;;;14.93;6.80;;;25.00;99.90;;;;;;5072691;28;20217;-78
2023/07/03 09:51:33;;;;;;;19.13;7.73;;;25.20;99.90;;;;;;5070849;28;20248;-78
2023/07/03 09:54:07;;;;;;;16.83;8.80;;;25.90;99.90;;;;;;5067489;28;20605;-78
2023/07/03 09:56:35;;;;;;;14.37;7.30;;;26.60;99.90;;;;;;5066227;28;20199;-77
2023/07/03 09:59:04;;;;;;;17.60;10.57;;;27.00;98.30;;;;;;5052378;28;20202;-79
2023/07/03 10:01:33;;;;;;;22.50;11.07;;;26.80;99.20;;;;;;5062790;28;20574;-78
2023/07/03 10:04:06;;;;;;;14.50;10.27;;;26.70;99.30;;;;;;5067899;28;20226;-79
2023/07/03 10:06:33;;;;;;;19.13;10.90;;;26.30;99.80;;;;;;5068679;28;20678;-79
2023/07/03 10:09:03;;;;;;;14.70;9.30;;;26.00;99.50;;;;;;5076425;28;20214;-78
2023/07/03 10:11:37;;;;;;;16.37;8.30;;;25.80;99.90;;;;;;5061095;28;20199;-79
2023/07/03 10:14:08;;;;;;;11.83;7.30;;;25.70;99.80;;;;;;5052079;28;20190;-78
2023/07/03 10:16:36;;;;;;;12.80;8.60;;;26.00;99.90;;;;;;5058046;28;20678;-78
2023/07/03 10:19:05;;;;;;;9.40;6.20;;;25.90;99.20;;;;;;5052839;28;20194;-78
2023/07/03 10:21:33;;;;;;;14.37;7.70;;;25.60;98.90;;;;;;5068104;28;20250;-79
2023/07/03 10:24:02;;;;;;;12.07;6.30;;;25.60;99.80;;;;;;5073543;28;20205;-78
2023/07/03 10:26:36;;;;;;;11.90;6.17;;;25.60;98.30;;;;;;5060676;28;20195;-78
2023/07/03 10:29:09;;;;;;;14.90;6.40;;;25.70;98.50;;;;;;5060650;28;20202;-79
2023/07/03 10:31:42;;;;;;;13.53;5.80;;;25.40;99.10;;;;;;5061915;28;20198;-77
2023/07/03 10:34:17;;;;;;;11.03;7.77;;;25.50;99.60;;;;;;5042356;28;20750;-78
2023/07/03 10:36:46;;;;;;;11.00;5.93;;;25.40;99.20;;;;;;5048043;28;20244;-78
2023/07/03 10:39:18;;;;;;;12.47;6.90;;;25.10;99.30;;;;;;5043922;28;20246;-78
2023/07/03 10:41:51;;;;;;;11.57;6.30;;;24.90;99.90;;;;;;5052713;28;20264;-78
2023/07/03 10:44:21;;;;;;;9.47;6.27;;;25.20;99.90;;;;;;5050679;28;20249;-77
2023/07/03 10:46:51;;;;;;;11.77;8.50;;;25.80;99.20;;;;;;5049321;28;20200;-77
2023/07/03 10:49:25;;;;;;;10.03;5.73;;;26.00;98.80;;;;;;5052094;28;20230;-78
2023/07/03 10:52:03;;;;;;;10.83;5.80;;;26.00;98.40;;;;;;5048795;28;20252;-78
2023/07/03 10:54:36;;;;;;;17.90;6.37;;;25.80;98.20;;;;;;5044207;28;20199;-78
2023/07/03 10:57:07;;;;;;;10.83;5.90;;;25.90;98.20;;;;;;5049302;28;20261;-79
2023/07/03 10:59:39;;;;;;;10.10;5.37;;;25.90;98.00;;;;;;5050072;28;20633;-78
2023/07/03 11:02:18;;;;;;;10.70;6.47;;;26.10;98.30;;;;;;5045940;28;20223;-79
2023/07/03 11:04:55;;;;;;;8.67;4.77;;;26.30;97.70;;;;;;5051900;28;20727;-78
2023/07/03 11:07:31;;;;;;;12.67;7.83;;;26.10;97.60;;;;;;5051218;28;20713;-78
2023/07/03 11:10:04;;;;;;;8.43;7.50;;;25.80;97.10;;;;;;5049586;28;20199;-78
2023/07/03 11:12:36;;;;;;;10.10;7.73;;;25.70;97.60;;;;;;5048744;28;20246;-78
2023/07/03 11:15:15;;;;;;;8.37;7.57;;;25.50;97.50;;;;;;5051331;28;20541;-78
2023/07/03 11:17:55;;;;;;;9.70;7.10;;;25.70;98.00;;;;;;5046888;28;20573;-78
2023/07/03 11:20:30;;;;;;;8.23;7.37;;;26.00;97.50;;;;;;5052290;28;20240;-78
2023/07/03 11:23:06;;;;;;;12.07;7.23;;;26.00;96.90;;;;;;5043848;28;20211;-78
2023/07/03 11:25:38;;;;;;;10.00;7.00;;;25.80;96.60;;;;;;5048729;28;20316;-77
2023/07/03 11:28:15;;;;;;;7.03;4.70;;;25.40;96.90;;;;;;5046922;28;20195;-78
2023/07/03 11:30:43;;;;;;;8.37;5.50;;;25.30;97.30;;;;;;5049060;28;20626;-78
2023/07/03 11:33:10;;;;;;;5.90;5.27;;;25.50;97.10;;;;;;5050366;28;20214;-78
2023/07/03 11:35:51;;;;;;;8.63;6.90;;;25.60;97.30;;;;;;5050495;28;20674;-78
2023/07/03 11:38:19;;;;;;;8.77;7.63;;;25.70;97.50;;;;;;5045762;28;20293;-78
2023/07/03 11:41:03;;;;;;;8.03;7.23;;;26.00;97.00;;;;;;5044172;28;20227;-78
2023/07/03 11:43:36;;;;;;;8.33;7.10;;;26.10;96.70;;;;;;5047880;28;20215;-78
2023/07/03 11:46:07;;;;;;;6.60;4.63;;;26.30;96.30;;;;;;5048000;28;20199;-78
2023/07/03 11:48:42;;;;;;;8.17;3.93;;;26.20;96.90;;;;;;5050313;28;20202;-77
2023/07/03 11:51:14;;;;;;;5.37;3.60;;;26.00;96.70;;;;;;5042195;28;20244;-78
2023/07/03 11:53:44;;;;;;;6.23;3.23;;;26.10;96.40;;;;;;5059359;28;20322;-78
2023/07/03 11:56:36;;;;;;;9.17;5.50;;;26.40;95.90;;;;;;5055055;28;20681;-78
2023/07/03 11:59:05;;;;;;;6.87;6.13;;;26.40;96.20;;;;;;5069208;28;20214;-78
2023/07/03 12:01:33;;;;;;;7.40;6.67;;;26.30;95.70;;;;;;5063324;28;20202;-78
2023/07/03 12:04:02;;;;;;;7.37;6.67;;;26.30;95.80;;;;;;5058379;28;20281;-78
2023/07/03 12:06:47;;;;;;;6.93;6.23;;;26.40;96.10;;;;;;5064609;28;20199;-78
2023/07/03 12:09:31;;;;;;;7.70;6.60;;;26.50;96.00;;;;;;5066367;28;20201;-79
2023/07/03 12:12:19;;;;;;;4.60;3.43;;;26.40;96.00;;;;;;5056064;28;20274;-79
2023/07/03 12:14:54;;;;;;;6.73;3.30;;;26.50;95.80;;;;;;5050698;28;20203;-78
2023/07/03 12:17:22;;;;;;;5.13;4.03;;;26.40;94.80;;;;;;5048755;28;20199;-78
2023/07/03 12:19:55;;;;;;;5.93;4.93;;;26.30;95.00;;;;;;5043501;28;20196;-78
2023/07/03 12:22:26;;;;;;;6.30;5.70;;;26.20;95.20;;;;;;5057954;28;20630;-78
2023/07/03 12:25:05;;;;;;;6.23;4.03;;;26.50;95.40;;;;;;5066924;28;20746;-78
2023/07/03 12:27:32;;;;;;;5.13;4.03;;;26.70;95.30;;;;;;5064861;28;20209;-78
2023/07/03 12:29:59;;;;;;;6.30;5.70;;;26.90;96.20;;;;;;5062524;28;20207;-77
2023/07/03 12:32:28;;;;;;;15.73;7.37;;;26.90;95.90;;;;;;5065071;28;20274;-79
2023/07/03 12:35:10;;;;;;;7.47;5.13;;;27.00;96.70;;;;;;5070390;28;20202;-79
2023/07/03 12:37:42;;;;;;;6.17;3.63;;;26.80;95.40;;;;;;5049967;28;20215;-78
2023/07/03 12:40:10;;;;;;;4.03;2.97;;;26.80;95.60;;;;;;5066120;28;20198;-78
2023/07/03 12:42:37;;;;;;;4.50;3.80;;;26.90;95.80;;;;;;5056534;28;20214;-77